sensor_id;sensor_type;location;lat;lon;timestamp;P1;durP1;ratioP1;P2;durP2;ratioP2
16472;SDS011;8347;52.486;13.432;2023-07-20T00:00:43;8.13;;;5.72;;
16472;SDS011;8347;52.486;13.432;2023-07-20T00:03:30;7.20;;;5.00;;
16472;SDS011;8347;52.486;13.432;2023-07-20T00:06:16;7.10;;;5.38;;
16472;SDS011;8347;52.486;13.432;2023-07-20T00:09:03;5.90;;;4.95;;
16472;SDS011;8347;52.486;13.432;2023-07-20T00:11:50;5.70;;;4.68;;
16472;SDS011;8347;52.486;13.432;2023-07-20T00:14:37;4.63;;;3.75;;
16472;SDS011;8347;52.486;13.432;2023-07-20T00:17:23;4.85;;;4.35;;
16472;SDS011;8347;52.486;13.432;2023-07-20T00:20:10;5.10;;;4.28;;
16472;SDS011;8347;52.486;13.432;2023-07-20T00:22:57;5.68;;;4.47;;
16472;SDS011;8347;52.486;13.432;2023-07-20T00:25:44;6.63;;;4.30;;
16472;SDS011;8347;52.486;13.432;2023-07-20T00:28:30;5.85;;;4.15;;
16472;SDS011;8347;52.486;13.432;2023-07-20T00:31:16;7.75;;;4.35;;
16472;SDS011;8347;52.486;13.432;2023-07-20T00:34:03;5.65;;;4.85;;
16472;SDS011;8347;52.486;13.432;2023-07-20T00:36:50;7.70;;;3.88;;
16472;SDS011;8347;52.486;13.432;2023-07-20T00:39:36;7.45;;;4.90;;
16472;SDS011;8347;52.486;13.432;2023-07-20T00:42:22;5.47;;;4.60;;
16472;SDS011;8347;52.486;13.432;2023-07-20T00:45:11;8.07;;;5.43;;
16472;SDS011;8347;52.486;13.432;2023-07-20T00:47:57;6.35;;;4.10;;
16472;SDS011;8347;52.486;13.432;2023-07-20T00:50:45;6.47;;;4.60;;
16472;SDS011;8347;52.486;13.432;2023-07-20T00:53:32;5.75;;;3.97;;
16472;SDS011;8347;52.486;13.432;2023-07-20T00:56:21;4.53;;;4.13;;
16472;SDS011;8347;52.486;13.432;2023-07-20T00:59:07;6.43;;;4.32;;
16472;SDS011;8347;52.486;13.432;2023-07-20T01:01:54;7.10;;;4.38;;
16472;SDS011;8347;52.486;13.432;2023-07-20T01:04:41;5.20;;;4.15;;
16472;SDS011;8347;52.486;13.432;2023-07-20T01:07:37;7.22;;;4.93;;
16472;SDS011;8347;52.486;13.432;2023-07-20T01:10:28;5.68;;;4.25;;
16472;SDS011;8347;52.486;13.432;2023-07-20T01:13:15;6.97;;;4.20;;
16472;SDS011;8347;52.486;13.432;2023-07-20T01:16:05;4.75;;;3.85;;
16472;SDS011;8347;52.486;13.432;2023-07-20T01:18:51;5.10;;;4.60;;
16472;SDS011;8347;52.486;13.432;2023-07-20T01:21:40;5.40;;;4.10;;
16472;SDS011;8347;52.486;13.432;2023-07-20T01:24:51;5.43;;;3.63;;
16472;SDS011;8347;52.486;13.432;2023-07-20T01:34:01;5.78;;;4.30;;
16472;SDS011;8347;52.486;13.432;2023-07-20T01:36:49;5.97;;;4.65;;
16472;SDS011;8347;52.486;13.432;2023-07-20T01:39:38;4.20;;;3.88;;
16472;SDS011;8347;52.486;13.432;2023-07-20T01:42:25;8.15;;;4.50;;
16472;SDS011;8347;52.486;13.432;2023-07-20T01:45:12;5.82;;;3.88;;
16472;SDS011;8347;52.486;13.432;2023-07-20T01:47:58;4.25;;;3.88;;
16472;SDS011;8347;52.486;13.432;2023-07-20T01:50:45;4.18;;;3.80;;
16472;SDS011;8347;52.486;13.432;2023-07-20T01:53:31;5.15;;;4.65;;
16472;SDS011;8347;52.486;13.432;2023-07-20T01:56:18;4.50;;;4.10;;
16472;SDS011;8347;52.486;13.432;2023-07-20T01:59:05;6.10;;;4.05;;
16472;SDS011;8347;52.486;13.432;2023-07-20T02:01:51;5.00;;;4.18;;
16472;SDS011;8347;52.486;13.432;2023-07-20T02:04:38;5.65;;;4.20;;
16472;SDS011;8347;52.486;13.432;2023-07-20T02:07:24;5.88;;;5.03;;
16472;SDS011;8347;52.486;13.432;2023-07-20T02:10:11;5.68;;;4.63;;
16472;SDS011;8347;52.486;13.432;2023-07-20T02:12:58;6.28;;;4.75;;
16472;SDS011;8347;52.486;13.432;2023-07-20T02:15:44;6.30;;;5.50;;
16472;SDS011;8347;52.486;13.432;2023-07-20T02:18:33;7.15;;;4.82;;
16472;SDS011;8347;52.486;13.432;2023-07-20T02:21:20;4.95;;;4.30;;
16472;SDS011;8347;52.486;13.432;2023-07-20T02:24:06;6.15;;;5.40;;
16472;SDS011;8347;52.486;13.432;2023-07-20T02:26:53;7.30;;;5.47;;
16472;SDS011;8347;52.486;13.432;2023-07-20T02:29:40;7.68;;;5.53;;
16472;SDS011;8347;52.486;13.432;2023-07-20T02:32:27;7.00;;;6.30;;
16472;SDS011;8347;52.486;13.432;2023-07-20T02:35:17;6.55;;;5.90;;
16472;SDS011;8347;52.486;13.432;2023-07-20T02:38:04;6.53;;;5.95;;
16472;SDS011;8347;52.486;13.432;2023-07-20T02:40:50;7.85;;;7.05;;
16472;SDS011;8347;52.486;13.432;2023-07-20T02:43:37;8.20;;;6.90;;
16472;SDS011;8347;52.486;13.432;2023-07-20T02:46:24;7.63;;;6.90;;
16472;SDS011;8347;52.486;13.432;2023-07-20T02:49:10;10.23;;;8.70;;
16472;SDS011;8347;52.486;13.432;2023-07-20T02:51:57;8.27;;;7.28;;
16472;SDS011;8347;52.486;13.432;2023-07-20T02:54:43;10.05;;;7.68;;
16472;SDS011;8347;52.486;13.432;2023-07-20T02:57:30;8.50;;;6.70;;
16472;SDS011;8347;52.486;13.432;2023-07-20T03:00:16;10.48;;;8.68;;
16472;SDS011;8347;52.486;13.432;2023-07-20T03:03:05;10.27;;;8.15;;
16472;SDS011;8347;52.486;13.432;2023-07-20T03:05:55;12.23;;;10.50;;
16472;SDS011;8347;52.486;13.432;2023-07-20T03:08:44;9.93;;;8.93;;
16472;SDS011;8347;52.486;13.432;2023-07-20T03:11:32;10.20;;;9.23;;
16472;SDS011;8347;52.486;13.432;2023-07-20T03:14:20;11.77;;;9.85;;
16472;SDS011;8347;52.486;13.432;2023-07-20T03:17:06;11.43;;;10.32;;
16472;SDS011;8347;52.486;13.432;2023-07-20T03:19:54;14.52;;;11.30;;
16472;SDS011;8347;52.486;13.432;2023-07-20T03:22:42;10.57;;;9.45;;
16472;SDS011;8347;52.486;13.432;2023-07-20T03:25:29;11.52;;;10.32;;
16472;SDS011;8347;52.486;13.432;2023-07-20T03:28:15;12.88;;;10.07;;
16472;SDS011;8347;52.486;13.432;2023-07-20T03:31:01;11.65;;;10.25;;
16472;SDS011;8347;52.486;13.432;2023-07-20T03:33:51;11.63;;;10.43;;
16472;SDS011;8347;52.486;13.432;2023-07-20T03:36:38;11.82;;;10.57;;
16472;SDS011;8347;52.486;13.432;2023-07-20T03:39:24;13.52;;;11.45;;
16472;SDS011;8347;52.486;13.432;2023-07-20T03:42:11;14.45;;;12.27;;
16472;SDS011;8347;52.486;13.432;2023-07-20T03:44:57;12.60;;;11.30;;
16472;SDS011;8347;52.486;13.432;2023-07-20T03:47:44;12.68;;;11.23;;
16472;SDS011;8347;52.486;13.432;2023-07-20T03:50:30;14.18;;;11.73;;
16472;SDS011;8347;52.486;13.432;2023-07-20T03:53:17;14.07;;;12.25;;
16472;SDS011;8347;52.486;13.432;2023-07-20T03:56:04;15.20;;;13.80;;
16472;SDS011;8347;52.486;13.432;2023-07-20T03:58:50;16.40;;;14.68;;
16472;SDS011;8347;52.486;13.432;2023-07-20T04:01:37;16.98;;;15.05;;
16472;SDS011;8347;52.486;13.432;2023-07-20T04:04:25;14.40;;;12.93;;
16472;SDS011;8347;52.486;13.432;2023-07-20T04:07:12;13.07;;;11.65;;
16472;SDS011;8347;52.486;13.432;2023-07-20T04:10:02;10.52;;;9.43;;
16472;SDS011;8347;52.486;13.432;2023-07-20T04:12:48;13.07;;;8.38;;
16472;SDS011;8347;52.486;13.432;2023-07-20T04:15:35;8.90;;;7.97;;
16472;SDS011;8347;52.486;13.432;2023-07-20T04:18:21;9.43;;;8.38;;
16472;SDS011;8347;52.486;13.432;2023-07-20T04:21:07;8.25;;;7.45;;
16472;SDS011;8347;52.486;13.432;2023-07-20T04:23:55;8.13;;;7.32;;
16472;SDS011;8347;52.486;13.432;2023-07-20T04:26:41;8.15;;;7.45;;
16472;SDS011;8347;52.486;13.432;2023-07-20T04:29:28;11.02;;;7.60;;
16472;SDS011;8347;52.486;13.432;2023-07-20T04:32:16;8.82;;;7.93;;
16472;SDS011;8347;52.486;13.432;2023-07-20T04:35:05;9.00;;;7.38;;
16472;SDS011;8347;52.486;13.432;2023-07-20T04:37:58;8.15;;;7.35;;
16472;SDS011;8347;52.486;13.432;2023-07-20T04:40:46;8.93;;;7.22;;
16472;SDS011;8347;52.486;13.432;2023-07-20T04:43:33;8.93;;;7.63;;
16472;SDS011;8347;52.486;13.432;2023-07-20T04:46:19;8.60;;;6.88;;
16472;SDS011;8347;52.486;13.432;2023-07-20T04:49:07;7.68;;;6.93;;
16472;SDS011;8347;52.486;13.432;2023-07-20T04:51:57;8.57;;;7.72;;
16472;SDS011;8347;52.486;13.432;2023-07-20T04:54:44;9.32;;;8.23;;
16472;SDS011;8347;52.486;13.432;2023-07-20T04:57:32;9.38;;;7.97;;
16472;SDS011;8347;52.486;13.432;2023-07-20T05:00:19;8.50;;;7.60;;
16472;SDS011;8347;52.486;13.432;2023-07-20T05:03:07;8.45;;;7.55;;
16472;SDS011;8347;52.486;13.432;2023-07-20T05:05:54;8.35;;;7.45;;
16472;SDS011;8347;52.486;13.432;2023-07-20T05:08:41;8.98;;;7.55;;
16472;SDS011;8347;52.486;13.432;2023-07-20T05:11:28;8.32;;;7.20;;
16472;SDS011;8347;52.486;13.432;2023-07-20T05:14:14;8.52;;;6.90;;
16472;SDS011;8347;52.486;13.432;2023-07-20T05:17:00;8.48;;;7.57;;
16472;SDS011;8347;52.486;13.432;2023-07-20T05:19:47;8.48;;;7.15;;
16472;SDS011;8347;52.486;13.432;2023-07-20T05:22:33;7.15;;;6.45;;
16472;SDS011;8347;52.486;13.432;2023-07-20T05:25:20;7.28;;;6.57;;
16472;SDS011;8347;52.486;13.432;2023-07-20T05:28:08;6.40;;;5.78;;
16472;SDS011;8347;52.486;13.432;2023-07-20T05:30:55;8.38;;;6.25;;
16472;SDS011;8347;52.486;13.432;2023-07-20T05:33:42;7.55;;;5.70;;
16472;SDS011;8347;52.486;13.432;2023-07-20T05:36:29;7.32;;;5.57;;
16472;SDS011;8347;52.486;13.432;2023-07-20T05:39:17;6.75;;;4.72;;
16472;SDS011;8347;52.486;13.432;2023-07-20T05:42:04;6.07;;;5.45;;
16472;SDS011;8347;52.486;13.432;2023-07-20T05:44:50;5.95;;;5.35;;
16472;SDS011;8347;52.486;13.432;2023-07-20T05:47:38;5.38;;;4.82;;
16472;SDS011;8347;52.486;13.432;2023-07-20T05:50:25;5.53;;;5.07;;
16472;SDS011;8347;52.486;13.432;2023-07-20T05:53:11;8.43;;;5.82;;
16472;SDS011;8347;52.486;13.432;2023-07-20T05:55:58;7.65;;;5.05;;
16472;SDS011;8347;52.486;13.432;2023-07-20T05:58:45;7.07;;;4.85;;
16472;SDS011;8347;52.486;13.432;2023-07-20T06:01:31;7.20;;;6.43;;
16472;SDS011;8347;52.486;13.432;2023-07-20T06:04:18;5.43;;;4.93;;
16472;SDS011;8347;52.486;13.432;2023-07-20T06:07:04;5.07;;;4.32;;
16472;SDS011;8347;52.486;13.432;2023-07-20T06:09:53;5.95;;;5.35;;
16472;SDS011;8347;52.486;13.432;2023-07-20T06:12:40;8.95;;;6.10;;
16472;SDS011;8347;52.486;13.432;2023-07-20T06:15:27;8.18;;;6.30;;
16472;SDS011;8347;52.486;13.432;2023-07-20T06:18:14;6.43;;;5.85;;
16472;SDS011;8347;52.486;13.432;2023-07-20T06:21:01;9.93;;;6.18;;
16472;SDS011;8347;52.486;13.432;2023-07-20T06:23:47;8.27;;;6.22;;
16472;SDS011;8347;52.486;13.432;2023-07-20T06:26:34;7.05;;;6.32;;
16472;SDS011;8347;52.486;13.432;2023-07-20T06:29:25;7.40;;;6.60;;
16472;SDS011;8347;52.486;13.432;2023-07-20T06:32:11;7.75;;;6.80;;
16472;SDS011;8347;52.486;13.432;2023-07-20T06:34:59;6.65;;;5.95;;
16472;SDS011;8347;52.486;13.432;2023-07-20T06:37:46;7.22;;;6.47;;
16472;SDS011;8347;52.486;13.432;2023-07-20T06:40:32;9.90;;;5.68;;
16472;SDS011;8347;52.486;13.432;2023-07-20T06:43:19;7.10;;;5.93;;
16472;SDS011;8347;52.486;13.432;2023-07-20T06:46:05;8.20;;;5.40;;
16472;SDS011;8347;52.486;13.432;2023-07-20T06:48:53;6.03;;;4.53;;
16472;SDS011;8347;52.486;13.432;2023-07-20T06:51:40;7.93;;;4.95;;
16472;SDS011;8347;52.486;13.432;2023-07-20T06:54:26;4.13;;;3.72;;
16472;SDS011;8347;52.486;13.432;2023-07-20T06:57:13;6.65;;;3.40;;
16472;SDS011;8347;52.486;13.432;2023-07-20T06:59:59;6.30;;;3.72;;
16472;SDS011;8347;52.486;13.432;2023-07-20T07:02:46;4.20;;;2.97;;
16472;SDS011;8347;52.486;13.432;2023-07-20T07:05:35;2.85;;;2.60;;
16472;SDS011;8347;52.486;13.432;2023-07-20T07:08:22;3.38;;;2.38;;
16472;SDS011;8347;52.486;13.432;2023-07-20T07:11:09;3.58;;;1.85;;
16472;SDS011;8347;52.486;13.432;2023-07-20T07:13:55;2.47;;;2.10;;
16472;SDS011;8347;52.486;13.432;2023-07-20T07:16:42;2.40;;;2.17;;
16472;SDS011;8347;52.486;13.432;2023-07-20T07:19:28;2.92;;;1.77;;
16472;SDS011;8347;52.486;13.432;2023-07-20T07:22:15;3.00;;;2.20;;
16472;SDS011;8347;52.486;13.432;2023-07-20T07:25:02;4.13;;;2.25;;
16472;SDS011;8347;52.486;13.432;2023-07-20T07:27:48;1.85;;;1.63;;
16472;SDS011;8347;52.486;13.432;2023-07-20T07:30:35;3.60;;;1.52;;
16472;SDS011;8347;52.486;13.432;2023-07-20T07:33:22;3.88;;;2.00;;
16472;SDS011;8347;52.486;13.432;2023-07-20T07:36:09;2.00;;;1.77;;
16472;SDS011;8347;52.486;13.432;2023-07-20T07:38:55;1.60;;;1.33;;
16472;SDS011;8347;52.486;13.432;2023-07-20T07:41:42;3.72;;;0.90;;
16472;SDS011;8347;52.486;13.432;2023-07-20T07:44:28;3.20;;;1.77;;
16472;SDS011;8347;52.486;13.432;2023-07-20T07:47:15;3.85;;;1.67;;
16472;SDS011;8347;52.486;13.432;2023-07-20T07:50:02;3.53;;;2.03;;
16472;SDS011;8347;52.486;13.432;2023-07-20T07:52:48;4.03;;;1.67;;
16472;SDS011;8347;52.486;13.432;2023-07-20T07:55:35;2.03;;;1.77;;
16472;SDS011;8347;52.486;13.432;2023-07-20T07:58:21;2.67;;;1.77;;
16472;SDS011;8347;52.486;13.432;2023-07-20T08:01:08;2.40;;;1.65;;
16472;SDS011;8347;52.486;13.432;2023-07-20T08:03:55;2.38;;;1.38;;
16472;SDS011;8347;52.486;13.432;2023-07-20T08:06:41;3.88;;;1.80;;
16472;SDS011;8347;52.486;13.432;2023-07-20T08:09:28;2.22;;;1.10;;
16472;SDS011;8347;52.486;13.432;2023-07-20T08:12:15;1.33;;;0.93;;
16472;SDS011;8347;52.486;13.432;2023-07-20T08:15:03;0.95;;;0.77;;
16472;SDS011;8347;52.486;13.432;2023-07-20T08:17:50;1.35;;;0.80;;
16472;SDS011;8347;52.486;13.432;2023-07-20T08:20:37;3.15;;;1.35;;
16472;SDS011;8347;52.486;13.432;2023-07-20T08:23:24;1.25;;;1.08;;
16472;SDS011;8347;52.486;13.432;2023-07-20T08:26:10;1.95;;;1.02;;
16472;SDS011;8347;52.486;13.432;2023-07-20T08:28:57;1.40;;;0.95;;
16472;SDS011;8347;52.486;13.432;2023-07-20T08:31:43;1.35;;;0.82;;
16472;SDS011;8347;52.486;13.432;2023-07-20T08:34:30;2.28;;;1.27;;
16472;SDS011;8347;52.486;13.432;2023-07-20T08:37:17;2.53;;;1.35;;
16472;SDS011;8347;52.486;13.432;2023-07-20T08:40:04;2.25;;;1.20;;
16472;SDS011;8347;52.486;13.432;2023-07-20T08:42:54;1.60;;;1.23;;
16472;SDS011;8347;52.486;13.432;2023-07-20T08:45:41;1.85;;;1.17;;
16472;SDS011;8347;52.486;13.432;2023-07-20T08:48:28;3.63;;;1.80;;
16472;SDS011;8347;52.486;13.432;2023-07-20T08:51:15;1.88;;;1.10;;
16472;SDS011;8347;52.486;13.432;2023-07-20T08:54:02;1.25;;;0.90;;
16472;SDS011;8347;52.486;13.432;2023-07-20T08:56:49;3.20;;;1.15;;
16472;SDS011;8347;52.486;13.432;2023-07-20T08:59:36;1.95;;;1.08;;
16472;SDS011;8347;52.486;13.432;2023-07-20T09:02:23;1.02;;;0.70;;
16472;SDS011;8347;52.486;13.432;2023-07-20T09:05:11;0.82;;;0.82;;
16472;SDS011;8347;52.486;13.432;2023-07-20T09:07:59;1.77;;;1.23;;
16472;SDS011;8347;52.486;13.432;2023-07-20T09:10:46;3.90;;;1.23;;
16472;SDS011;8347;52.486;13.432;2023-07-20T09:13:33;1.75;;;1.40;;
16472;SDS011;8347;52.486;13.432;2023-07-20T09:16:20;0.88;;;0.88;;
16472;SDS011;8347;52.486;13.432;2023-07-20T09:19:07;4.95;;;2.85;;
16472;SDS011;8347;52.486;13.432;2023-07-20T09:21:54;4.25;;;2.28;;
16472;SDS011;8347;52.486;13.432;2023-07-20T09:24:42;3.00;;;2.15;;
16472;SDS011;8347;52.486;13.432;2023-07-20T09:27:37;3.78;;;1.77;;
16472;SDS011;8347;52.486;13.432;2023-07-20T09:30:25;4.80;;;1.52;;
16472;SDS011;8347;52.486;13.432;2023-07-20T09:33:18;1.70;;;0.90;;
16472;SDS011;8347;52.486;13.432;2023-07-20T09:36:05;2.20;;;1.20;;
16472;SDS011;8347;52.486;13.432;2023-07-20T09:38:52;1.52;;;0.77;;
16472;SDS011;8347;52.486;13.432;2023-07-20T09:41:39;1.23;;;0.90;;
16472;SDS011;8347;52.486;13.432;2023-07-20T09:44:29;1.08;;;0.80;;
16472;SDS011;8347;52.486;13.432;2023-07-20T09:47:22;1.30;;;1.00;;
16472;SDS011;8347;52.486;13.432;2023-07-20T09:50:09;2.67;;;1.30;;
16472;SDS011;8347;52.486;13.432;2023-07-20T09:52:56;3.70;;;1.10;;
16472;SDS011;8347;52.486;13.432;2023-07-20T09:55:46;3.08;;;1.70;;
16472;SDS011;8347;52.486;13.432;2023-07-20T09:58:33;2.83;;;2.00;;
16472;SDS011;8347;52.486;13.432;2023-07-20T10:01:20;3.28;;;2.20;;
16472;SDS011;8347;52.486;13.432;2023-07-20T10:04:08;3.70;;;2.45;;
16472;SDS011;8347;52.486;13.432;2023-07-20T10:06:57;3.33;;;1.48;;
16472;SDS011;8347;52.486;13.432;2023-07-20T10:09:46;3.38;;;1.35;;
16472;SDS011;8347;52.486;13.432;2023-07-20T10:12:34;2.17;;;1.45;;
16472;SDS011;8347;52.486;13.432;2023-07-20T10:15:24;2.22;;;1.30;;
16472;SDS011;8347;52.486;13.432;2023-07-20T10:21:14;3.80;;;1.50;;
16472;SDS011;8347;52.486;13.432;2023-07-20T10:24:02;1.40;;;0.98;;
16472;SDS011;8347;52.486;13.432;2023-07-20T10:26:49;1.60;;;1.10;;
16472;SDS011;8347;52.486;13.432;2023-07-20T10:29:36;1.70;;;1.50;;
16472;SDS011;8347;52.486;13.432;2023-07-20T10:32:23;2.10;;;1.25;;
16472;SDS011;8347;52.486;13.432;2023-07-20T10:35:16;3.38;;;1.83;;
16472;SDS011;8347;52.486;13.432;2023-07-20T10:38:03;1.40;;;1.30;;
16472;SDS011;8347;52.486;13.432;2023-07-20T10:40:56;2.33;;;1.58;;
16472;SDS011;8347;52.486;13.432;2023-07-20T10:43:43;1.48;;;1.20;;
16472;SDS011;8347;52.486;13.432;2023-07-20T10:46:34;1.95;;;1.20;;
16472;SDS011;8347;52.486;13.432;2023-07-20T10:49:21;1.65;;;1.27;;
16472;SDS011;8347;52.486;13.432;2023-07-20T10:52:12;3.90;;;1.52;;
16472;SDS011;8347;52.486;13.432;2023-07-20T10:55:02;1.52;;;1.38;;
16472;SDS011;8347;52.486;13.432;2023-07-20T10:58:09;2.33;;;1.42;;
16472;SDS011;8347;52.486;13.432;2023-07-20T11:01:02;1.25;;;1.10;;
16472;SDS011;8347;52.486;13.432;2023-07-20T11:03:49;2.55;;;1.65;;
16472;SDS011;8347;52.486;13.432;2023-07-20T11:06:36;3.15;;;1.40;;
16472;SDS011;8347;52.486;13.432;2023-07-20T11:09:24;1.95;;;1.38;;
16472;SDS011;8347;52.486;13.432;2023-07-20T11:12:12;2.15;;;1.55;;
16472;SDS011;8347;52.486;13.432;2023-07-20T11:14:59;1.75;;;1.60;;
16472;SDS011;8347;52.486;13.432;2023-07-20T11:17:46;4.57;;;2.30;;
16472;SDS011;8347;52.486;13.432;2023-07-20T11:20:32;2.65;;;1.75;;
16472;SDS011;8347;52.486;13.432;2023-07-20T11:23:22;2.20;;;1.30;;
16472;SDS011;8347;52.486;13.432;2023-07-20T11:26:09;3.08;;;1.33;;
16472;SDS011;8347;52.486;13.432;2023-07-20T11:28:55;3.63;;;1.98;;
16472;SDS011;8347;52.486;13.432;2023-07-20T11:31:43;4.32;;;2.35;;
16472;SDS011;8347;52.486;13.432;2023-07-20T11:34:30;2.72;;;1.77;;
16472;SDS011;8347;52.486;13.432;2023-07-20T11:37:17;2.65;;;1.73;;
16472;SDS011;8347;52.486;13.432;2023-07-20T11:40:04;15.98;;;8.25;;
16472;SDS011;8347;52.486;13.432;2023-07-20T11:42:51;9.20;;;5.28;;
16472;SDS011;8347;52.486;13.432;2023-07-20T11:45:39;8.57;;;4.93;;
16472;SDS011;8347;52.486;13.432;2023-07-20T11:48:25;3.72;;;2.90;;
16472;SDS011;8347;52.486;13.432;2023-07-20T11:51:15;5.07;;;2.72;;
16472;SDS011;8347;52.486;13.432;2023-07-20T11:54:02;1.42;;;1.33;;
16472;SDS011;8347;52.486;13.432;2023-07-20T11:56:53;1.70;;;1.38;;
16472;SDS011;8347;52.486;13.432;2023-07-20T11:59:40;3.20;;;1.95;;
16472;SDS011;8347;52.486;13.432;2023-07-20T12:02:38;3.28;;;2.22;;
16472;SDS011;8347;52.486;13.432;2023-07-20T12:05:25;4.28;;;2.88;;
16472;SDS011;8347;52.486;13.432;2023-07-20T12:08:12;2.22;;;1.35;;
16472;SDS011;8347;52.486;13.432;2023-07-20T12:10:58;6.78;;;3.92;;
16472;SDS011;8347;52.486;13.432;2023-07-20T12:13:45;7.90;;;4.28;;
16472;SDS011;8347;52.486;13.432;2023-07-20T12:16:31;3.00;;;2.28;;
16472;SDS011;8347;52.486;13.432;2023-07-20T12:19:18;4.53;;;2.50;;
16472;SDS011;8347;52.486;13.432;2023-07-20T12:22:04;7.32;;;2.30;;
16472;SDS011;8347;52.486;13.432;2023-07-20T12:24:52;3.13;;;1.77;;
16472;SDS011;8347;52.486;13.432;2023-07-20T12:27:39;4.28;;;2.28;;
16472;SDS011;8347;52.486;13.432;2023-07-20T12:30:27;2.45;;;0.90;;
16472;SDS011;8347;52.486;13.432;2023-07-20T12:33:13;0.75;;;0.60;;
16472;SDS011;8347;52.486;13.432;2023-07-20T12:36:01;2.50;;;1.00;;
16472;SDS011;8347;52.486;13.432;2023-07-20T12:38:48;2.47;;;1.20;;
16472;SDS011;8347;52.486;13.432;2023-07-20T12:41:35;2.33;;;1.10;;
16472;SDS011;8347;52.486;13.432;2023-07-20T12:44:22;1.02;;;0.93;;
16472;SDS011;8347;52.486;13.432;2023-07-20T12:47:08;2.72;;;0.98;;
16472;SDS011;8347;52.486;13.432;2023-07-20T12:52:45;1.40;;;0.70;;
16472;SDS011;8347;52.486;13.432;2023-07-20T12:55:31;1.55;;;0.95;;
16472;SDS011;8347;52.486;13.432;2023-07-20T12:58:18;1.67;;;1.15;;
16472;SDS011;8347;52.486;13.432;2023-07-20T13:01:04;1.60;;;1.25;;
16472;SDS011;8347;52.486;13.432;2023-07-20T13:03:51;3.30;;;1.45;;
16472;SDS011;8347;52.486;13.432;2023-07-20T13:06:37;4.57;;;2.00;;
16472;SDS011;8347;52.486;13.432;2023-07-20T13:09:24;2.45;;;1.40;;
16472;SDS011;8347;52.486;13.432;2023-07-20T13:12:11;1.35;;;0.70;;
16472;SDS011;8347;52.486;13.432;2023-07-20T13:14:58;3.30;;;1.00;;
16472;SDS011;8347;52.486;13.432;2023-07-20T13:17:46;1.85;;;1.30;;
16472;SDS011;8347;52.486;13.432;2023-07-20T13:20:33;1.70;;;0.77;;
16472;SDS011;8347;52.486;13.432;2023-07-20T13:23:19;1.63;;;0.80;;
16472;SDS011;8347;52.486;13.432;2023-07-20T13:26:06;1.17;;;0.70;;
16472;SDS011;8347;52.486;13.432;2023-07-20T13:28:54;0.40;;;0.40;;
16472;SDS011;8347;52.486;13.432;2023-07-20T13:31:40;2.22;;;0.93;;
16472;SDS011;8347;52.486;13.432;2023-07-20T13:34:26;1.58;;;0.90;;
16472;SDS011;8347;52.486;13.432;2023-07-20T13:37:13;1.77;;;1.38;;
16472;SDS011;8347;52.486;13.432;2023-07-20T13:39:59;0.88;;;0.75;;
16472;SDS011;8347;52.486;13.432;2023-07-20T13:42:46;3.67;;;0.98;;
16472;SDS011;8347;52.486;13.432;2023-07-20T13:45:32;2.17;;;1.02;;
16472;SDS011;8347;52.486;13.432;2023-07-20T13:48:19;1.02;;;0.68;;
16472;SDS011;8347;52.486;13.432;2023-07-20T13:51:08;1.13;;;0.50;;
16472;SDS011;8347;52.486;13.432;2023-07-20T13:53:55;1.10;;;0.70;;
16472;SDS011;8347;52.486;13.432;2023-07-20T13:56:41;0.90;;;0.60;;
16472;SDS011;8347;52.486;13.432;2023-07-20T13:59:28;1.08;;;0.90;;
16472;SDS011;8347;52.486;13.432;2023-07-20T14:02:15;1.85;;;1.02;;
16472;SDS011;8347;52.486;13.432;2023-07-20T14:05:01;0.95;;;0.73;;
16472;SDS011;8347;52.486;13.432;2023-07-20T14:07:48;3.65;;;0.90;;
16472;SDS011;8347;52.486;13.432;2023-07-20T14:10:35;1.00;;;0.52;;
16472;SDS011;8347;52.486;13.432;2023-07-20T14:13:22;1.00;;;0.85;;
16472;SDS011;8347;52.486;13.432;2023-07-20T14:16:09;1.25;;;1.15;;
16472;SDS011;8347;52.486;13.432;2023-07-20T14:18:55;9.80;;;5.10;;
16472;SDS011;8347;52.486;13.432;2023-07-20T14:21:42;6.40;;;3.25;;
16472;SDS011;8347;52.486;13.432;2023-07-20T14:24:30;1.20;;;0.90;;
16472;SDS011;8347;52.486;13.432;2023-07-20T14:27:16;1.20;;;0.88;;
16472;SDS011;8347;52.486;13.432;2023-07-20T14:30:03;3.88;;;0.90;;
16472;SDS011;8347;52.486;13.432;2023-07-20T14:32:49;1.50;;;0.80;;
16472;SDS011;8347;52.486;13.432;2023-07-20T14:35:36;1.30;;;0.90;;
16472;SDS011;8347;52.486;13.432;2023-07-20T14:38:23;1.95;;;1.30;;
16472;SDS011;8347;52.486;13.432;2023-07-20T14:41:09;3.20;;;1.23;;
16472;SDS011;8347;52.486;13.432;2023-07-20T14:43:56;1.08;;;0.73;;
16472;SDS011;8347;52.486;13.432;2023-07-20T14:46:43;0.90;;;0.80;;
16472;SDS011;8347;52.486;13.432;2023-07-20T14:49:29;1.77;;;0.80;;
16472;SDS011;8347;52.486;13.432;2023-07-20T14:52:16;1.50;;;1.10;;
16472;SDS011;8347;52.486;13.432;2023-07-20T14:55:03;3.55;;;1.15;;
16472;SDS011;8347;52.486;13.432;2023-07-20T14:57:50;4.13;;;1.65;;
16472;SDS011;8347;52.486;13.432;2023-07-20T15:00:37;1.90;;;1.00;;
16472;SDS011;8347;52.486;13.432;2023-07-20T15:03:23;4.78;;;2.42;;
16472;SDS011;8347;52.486;13.432;2023-07-20T15:06:10;1.70;;;1.25;;
16472;SDS011;8347;52.486;13.432;2023-07-20T15:08:57;4.47;;;1.10;;
16472;SDS011;8347;52.486;13.432;2023-07-20T15:11:44;1.15;;;1.00;;
16472;SDS011;8347;52.486;13.432;2023-07-20T15:14:30;1.73;;;1.15;;
16472;SDS011;8347;52.486;13.432;2023-07-20T15:17:17;2.45;;;1.90;;
16472;SDS011;8347;52.486;13.432;2023-07-20T15:20:05;3.40;;;2.83;;
16472;SDS011;8347;52.486;13.432;2023-07-20T15:22:52;1.88;;;1.40;;
16472;SDS011;8347;52.486;13.432;2023-07-20T15:25:39;2.80;;;1.75;;
16472;SDS011;8347;52.486;13.432;2023-07-20T15:28:26;2.38;;;1.67;;
16472;SDS011;8347;52.486;13.432;2023-07-20T15:31:12;2.78;;;1.73;;
16472;SDS011;8347;52.486;13.432;2023-07-20T15:33:58;4.03;;;1.27;;
16472;SDS011;8347;52.486;13.432;2023-07-20T15:36:45;2.88;;;0.93;;
16472;SDS011;8347;52.486;13.432;2023-07-20T15:39:32;2.85;;;1.85;;
16472;SDS011;8347;52.486;13.432;2023-07-20T15:42:18;4.35;;;2.30;;
16472;SDS011;8347;52.486;13.432;2023-07-20T15:45:05;7.60;;;3.88;;
16472;SDS011;8347;52.486;13.432;2023-07-20T15:47:52;5.80;;;3.30;;
16472;SDS011;8347;52.486;13.432;2023-07-20T15:50:38;5.32;;;2.58;;
16472;SDS011;8347;52.486;13.432;2023-07-20T15:53:24;4.25;;;3.22;;
16472;SDS011;8347;52.486;13.432;2023-07-20T15:56:11;8.73;;;6.00;;
16472;SDS011;8347;52.486;13.432;2023-07-20T15:58:57;3.83;;;3.13;;
16472;SDS011;8347;52.486;13.432;2023-07-20T16:01:44;3.70;;;2.25;;
16472;SDS011;8347;52.486;13.432;2023-07-20T16:04:31;3.10;;;1.88;;
16472;SDS011;8347;52.486;13.432;2023-07-20T16:07:17;2.50;;;1.63;;
16472;SDS011;8347;52.486;13.432;2023-07-20T16:10:04;2.42;;;1.50;;
16472;SDS011;8347;52.486;13.432;2023-07-20T16:12:54;5.82;;;2.40;;
16472;SDS011;8347;52.486;13.432;2023-07-20T16:15:40;3.60;;;1.95;;
16472;SDS011;8347;52.486;13.432;2023-07-20T16:18:26;4.07;;;0.90;;
16472;SDS011;8347;52.486;13.432;2023-07-20T16:21:13;2.08;;;1.23;;
16472;SDS011;8347;52.486;13.432;2023-07-20T16:24:00;1.50;;;1.00;;
16472;SDS011;8347;52.486;13.432;2023-07-20T16:26:46;3.80;;;1.15;;
16472;SDS011;8347;52.486;13.432;2023-07-20T16:29:33;3.10;;;1.52;;
16472;SDS011;8347;52.486;13.432;2023-07-20T16:32:19;0.93;;;0.82;;
16472;SDS011;8347;52.486;13.432;2023-07-20T16:35:06;1.23;;;1.05;;
16472;SDS011;8347;52.486;13.432;2023-07-20T16:37:54;3.13;;;1.08;;
16472;SDS011;8347;52.486;13.432;2023-07-20T16:40:41;3.67;;;1.20;;
16472;SDS011;8347;52.486;13.432;2023-07-20T16:43:28;2.28;;;1.30;;
16472;SDS011;8347;52.486;13.432;2023-07-20T16:46:14;3.35;;;2.13;;
16472;SDS011;8347;52.486;13.432;2023-07-20T16:49:01;2.67;;;1.20;;
16472;SDS011;8347;52.486;13.432;2023-07-20T16:51:50;4.28;;;2.10;;
16472;SDS011;8347;52.486;13.432;2023-07-20T16:54:36;4.18;;;2.80;;
16472;SDS011;8347;52.486;13.432;2023-07-20T16:57:23;3.83;;;1.80;;